sensor_id;sensor_type;location;lat;lon;timestamp;P1;durP1;ratioP1;P2;durP2;ratioP2
77722;SDS011;67811;42.656;23.394;2023-11-21T00:02:23;6.47;;;2.78;;
77722;SDS011;67811;42.656;23.394;2023-11-21T00:06:29;5.60;;;2.57;;
77722;SDS011;67811;42.656;23.394;2023-11-21T00:10:34;4.30;;;2.00;;
77722;SDS011;67811;42.656;23.394;2023-11-21T00:14:40;5.88;;;2.30;;
77722;SDS011;67811;42.656;23.394;2023-11-21T00:18:45;4.23;;;1.60;;
77722;SDS011;67811;42.656;23.394;2023-11-21T00:22:50;3.63;;;1.70;;
77722;SDS011;67811;42.656;23.394;2023-11-21T00:26:56;4.17;;;2.00;;
77722;SDS011;67811;42.656;23.394;2023-11-21T00:31:01;5.13;;;1.87;;
77722;SDS011;67811;42.656;23.394;2023-11-21T00:35:06;3.93;;;1.87;;
77722;SDS011;67811;42.656;23.394;2023-11-21T00:39:12;4.10;;;2.03;;
77722;SDS011;67811;42.656;23.394;2023-11-21T00:43:17;3.83;;;1.50;;
77722;SDS011;67811;42.656;23.394;2023-11-21T00:47:22;4.67;;;2.03;;
77722;SDS011;67811;42.656;23.394;2023-11-21T00:51:28;3.27;;;1.63;;
77722;SDS011;67811;42.656;23.394;2023-11-21T00:55:33;3.97;;;1.83;;
77722;SDS011;67811;42.656;23.394;2023-11-21T00:59:38;3.20;;;1.23;;
77722;SDS011;67811;42.656;23.394;2023-11-21T01:03:45;4.63;;;2.20;;
77722;SDS011;67811;42.656;23.394;2023-11-21T01:07:51;5.78;;;1.75;;
77722;SDS011;67811;42.656;23.394;2023-11-21T01:11:56;3.47;;;1.57;;
77722;SDS011;67811;42.656;23.394;2023-11-21T01:16:02;4.70;;;1.87;;
77722;SDS011;67811;42.656;23.394;2023-11-21T01:20:07;3.73;;;1.70;;
77722;SDS011;67811;42.656;23.394;2023-11-21T01:24:13;4.65;;;1.85;;
77722;SDS011;67811;42.656;23.394;2023-11-21T01:28:18;5.53;;;2.20;;
77722;SDS011;67811;42.656;23.394;2023-11-21T01:32:24;9.15;;;4.03;;
77722;SDS011;67811;42.656;23.394;2023-11-21T01:36:30;14.50;;;6.47;;
77722;SDS011;67811;42.656;23.394;2023-11-21T01:40:36;16.40;;;7.72;;
77722;SDS011;67811;42.656;23.394;2023-11-21T01:44:41;20.77;;;10.47;;
77722;SDS011;67811;42.656;23.394;2023-11-21T01:48:47;22.90;;;13.27;;
77722;SDS011;67811;42.656;23.394;2023-11-21T01:52:53;25.17;;;12.65;;
77722;SDS011;67811;42.656;23.394;2023-11-21T01:56:59;21.55;;;13.15;;
77722;SDS011;67811;42.656;23.394;2023-11-21T02:01:05;27.63;;;13.95;;
77722;SDS011;67811;42.656;23.394;2023-11-21T02:05:11;25.70;;;13.73;;
77722;SDS011;67811;42.656;23.394;2023-11-21T02:09:16;26.85;;;14.02;;
77722;SDS011;67811;42.656;23.394;2023-11-21T02:13:22;29.70;;;14.32;;
77722;SDS011;67811;42.656;23.394;2023-11-21T02:17:27;30.07;;;13.23;;
77722;SDS011;67811;42.656;23.394;2023-11-21T02:21:32;27.20;;;12.87;;
77722;SDS011;67811;42.656;23.394;2023-11-21T02:25:38;23.13;;;12.20;;
77722;SDS011;67811;42.656;23.394;2023-11-21T02:29:43;26.50;;;12.30;;
77722;SDS011;67811;42.656;23.394;2023-11-21T02:33:48;28.20;;;12.03;;
77722;SDS011;67811;42.656;23.394;2023-11-21T02:37:54;22.13;;;12.47;;
77722;SDS011;67811;42.656;23.394;2023-11-21T02:41:59;20.90;;;12.67;;
77722;SDS011;67811;42.656;23.394;2023-11-21T02:46:05;24.73;;;12.97;;
77722;SDS011;67811;42.656;23.394;2023-11-21T02:50:10;20.03;;;8.80;;
77722;SDS011;67811;42.656;23.394;2023-11-21T02:54:15;8.37;;;4.40;;
77722;SDS011;67811;42.656;23.394;2023-11-21T02:58:21;10.77;;;5.30;;
77722;SDS011;67811;42.656;23.394;2023-11-21T03:02:26;15.27;;;7.20;;
77722;SDS011;67811;42.656;23.394;2023-11-21T03:06:31;22.53;;;10.03;;
77722;SDS011;67811;42.656;23.394;2023-11-21T03:10:36;22.10;;;11.27;;
77722;SDS011;67811;42.656;23.394;2023-11-21T03:14:42;21.53;;;11.07;;
77722;SDS011;67811;42.656;23.394;2023-11-21T03:18:47;20.20;;;10.10;;
77722;SDS011;67811;42.656;23.394;2023-11-21T03:22:52;21.33;;;9.60;;
77722;SDS011;67811;42.656;23.394;2023-11-21T03:26:58;26.03;;;11.67;;
77722;SDS011;67811;42.656;23.394;2023-11-21T03:31:03;23.27;;;12.43;;
77722;SDS011;67811;42.656;23.394;2023-11-21T03:35:09;17.88;;;10.45;;
77722;SDS011;67811;42.656;23.394;2023-11-21T03:39:14;20.40;;;9.80;;
77722;SDS011;67811;42.656;23.394;2023-11-21T03:43:19;17.50;;;9.87;;
77722;SDS011;67811;42.656;23.394;2023-11-21T03:47:26;17.37;;;9.43;;
77722;SDS011;67811;42.656;23.394;2023-11-21T03:51:32;20.20;;;9.40;;
77722;SDS011;67811;42.656;23.394;2023-11-21T03:55:38;23.50;;;11.00;;
77722;SDS011;67811;42.656;23.394;2023-11-21T03:59:43;14.87;;;9.40;;
77722;SDS011;67811;42.656;23.394;2023-11-21T04:03:49;16.50;;;8.93;;
77722;SDS011;67811;42.656;23.394;2023-11-21T04:07:54;10.77;;;5.80;;
77722;SDS011;67811;42.656;23.394;2023-11-21T04:12:00;14.73;;;8.13;;
77722;SDS011;67811;42.656;23.394;2023-11-21T04:16:05;13.63;;;7.47;;
77722;SDS011;67811;42.656;23.394;2023-11-21T04:20:11;15.57;;;7.30;;
77722;SDS011;67811;42.656;23.394;2023-11-21T04:24:17;10.00;;;4.43;;
77722;SDS011;67811;42.656;23.394;2023-11-21T04:28:23;9.73;;;4.83;;
77722;SDS011;67811;42.656;23.394;2023-11-21T04:32:28;12.00;;;6.70;;
77722;SDS011;67811;42.656;23.394;2023-11-21T04:36:33;9.33;;;5.07;;
77722;SDS011;67811;42.656;23.394;2023-11-21T04:40:39;11.23;;;6.10;;
77722;SDS011;67811;42.656;23.394;2023-11-21T04:44:44;4.83;;;2.63;;
77722;SDS011;67811;42.656;23.394;2023-11-21T04:48:49;5.40;;;3.70;;
77722;SDS011;67811;42.656;23.394;2023-11-21T04:52:55;10.43;;;6.07;;
77722;SDS011;67811;42.656;23.394;2023-11-21T04:57:00;11.73;;;5.83;;
77722;SDS011;67811;42.656;23.394;2023-11-21T05:01:06;10.63;;;5.70;;
77722;SDS011;67811;42.656;23.394;2023-11-21T05:05:12;8.45;;;5.15;;
77722;SDS011;67811;42.656;23.394;2023-11-21T05:09:18;12.73;;;5.97;;
77722;SDS011;67811;42.656;23.394;2023-11-21T05:13:23;4.33;;;2.93;;
77722;SDS011;67811;42.656;23.394;2023-11-21T05:17:28;14.03;;;7.37;;
77722;SDS011;67811;42.656;23.394;2023-11-21T05:21:34;13.47;;;6.30;;
77722;SDS011;67811;42.656;23.394;2023-11-21T05:25:39;10.97;;;6.27;;
77722;SDS011;67811;42.656;23.394;2023-11-21T05:29:44;4.80;;;3.17;;
77722;SDS011;67811;42.656;23.394;2023-11-21T05:33:50;13.27;;;6.50;;
77722;SDS011;67811;42.656;23.394;2023-11-21T05:37:55;10.47;;;6.17;;
77722;SDS011;67811;42.656;23.394;2023-11-21T05:42:00;14.80;;;6.73;;
77722;SDS011;67811;42.656;23.394;2023-11-21T05:46:05;13.47;;;7.80;;
77722;SDS011;67811;42.656;23.394;2023-11-21T05:50:11;18.17;;;8.00;;
77722;SDS011;67811;42.656;23.394;2023-11-21T05:54:18;14.35;;;7.72;;
77722;SDS011;67811;42.656;23.394;2023-11-21T05:58:23;15.30;;;7.87;;
77722;SDS011;67811;42.656;23.394;2023-11-21T06:02:28;14.20;;;7.83;;
77722;SDS011;67811;42.656;23.394;2023-11-21T06:06:34;16.60;;;9.20;;
77722;SDS011;67811;42.656;23.394;2023-11-21T06:10:39;20.30;;;9.57;;
77722;SDS011;67811;42.656;23.394;2023-11-21T06:14:44;18.53;;;9.07;;
77722;SDS011;67811;42.656;23.394;2023-11-21T06:18:50;17.87;;;8.93;;
77722;SDS011;67811;42.656;23.394;2023-11-21T06:22:55;18.50;;;9.10;;
77722;SDS011;67811;42.656;23.394;2023-11-21T06:27:03;12.80;;;7.22;;
77722;SDS011;67811;42.656;23.394;2023-11-21T06:31:09;15.32;;;6.40;;
77722;SDS011;67811;42.656;23.394;2023-11-21T06:35:14;17.07;;;7.40;;
77722;SDS011;67811;42.656;23.394;2023-11-21T06:39:19;18.97;;;6.60;;
77722;SDS011;67811;42.656;23.394;2023-11-21T06:43:25;15.40;;;7.17;;
77722;SDS011;67811;42.656;23.394;2023-11-21T06:47:30;12.70;;;6.33;;
77722;SDS011;67811;42.656;23.394;2023-11-21T06:51:35;11.17;;;6.40;;
77722;SDS011;67811;42.656;23.394;2023-11-21T06:55:41;13.23;;;6.73;;
77722;SDS011;67811;42.656;23.394;2023-11-21T06:59:46;10.23;;;6.13;;
77722;SDS011;67811;42.656;23.394;2023-11-21T07:03:51;10.30;;;6.03;;
77722;SDS011;67811;42.656;23.394;2023-11-21T07:07:57;9.80;;;5.70;;
77722;SDS011;67811;42.656;23.394;2023-11-21T07:12:02;12.03;;;6.53;;
77722;SDS011;67811;42.656;23.394;2023-11-21T07:16:08;13.75;;;5.97;;
77722;SDS011;67811;42.656;23.394;2023-11-21T07:20:13;14.03;;;6.47;;
77722;SDS011;67811;42.656;23.394;2023-11-21T07:24:18;11.88;;;6.35;;
77722;SDS011;67811;42.656;23.394;2023-11-21T07:28:24;11.37;;;5.93;;
77722;SDS011;67811;42.656;23.394;2023-11-21T07:32:30;12.87;;;6.10;;
77722;SDS011;67811;42.656;23.394;2023-11-21T07:36:36;12.05;;;5.97;;
77722;SDS011;67811;42.656;23.394;2023-11-21T07:40:41;12.60;;;6.50;;
77722;SDS011;67811;42.656;23.394;2023-11-21T07:44:46;12.10;;;6.20;;
77722;SDS011;67811;42.656;23.394;2023-11-21T07:48:52;13.43;;;6.77;;
77722;SDS011;67811;42.656;23.394;2023-11-21T07:52:57;13.40;;;7.10;;
77722;SDS011;67811;42.656;23.394;2023-11-21T07:57:03;13.85;;;6.75;;
77722;SDS011;67811;42.656;23.394;2023-11-21T08:01:08;18.23;;;8.32;;
77722;SDS011;67811;42.656;23.394;2023-11-21T08:05:14;17.03;;;8.47;;
77722;SDS011;67811;42.656;23.394;2023-11-21T08:09:19;14.70;;;7.03;;
77722;SDS011;67811;42.656;23.394;2023-11-21T08:13:25;13.53;;;7.40;;
77722;SDS011;67811;42.656;23.394;2023-11-21T08:17:32;17.13;;;8.00;;
77722;SDS011;67811;42.656;23.394;2023-11-21T08:21:38;15.40;;;8.80;;
77722;SDS011;67811;42.656;23.394;2023-11-21T08:25:43;14.70;;;8.17;;
77722;SDS011;67811;42.656;23.394;2023-11-21T08:29:49;16.80;;;9.82;;
77722;SDS011;67811;42.656;23.394;2023-11-21T08:33:55;16.13;;;9.07;;
77722;SDS011;67811;42.656;23.394;2023-11-21T08:38:00;18.77;;;10.18;;
77722;SDS011;67811;42.656;23.394;2023-11-21T08:42:06;21.57;;;11.37;;
77722;SDS011;67811;42.656;23.394;2023-11-21T08:46:11;20.00;;;11.23;;
77722;SDS011;67811;42.656;23.394;2023-11-21T08:50:16;20.43;;;11.43;;
77722;SDS011;67811;42.656;23.394;2023-11-21T08:54:22;22.98;;;11.07;;
77722;SDS011;67811;42.656;23.394;2023-11-21T08:58:27;22.57;;;10.40;;
77722;SDS011;67811;42.656;23.394;2023-11-21T09:02:33;15.63;;;9.27;;
77722;SDS011;67811;42.656;23.394;2023-11-21T09:06:39;18.80;;;9.65;;
77722;SDS011;67811;42.656;23.394;2023-11-21T09:10:44;13.95;;;8.15;;
77722;SDS011;67811;42.656;23.394;2023-11-21T09:14:50;19.23;;;11.53;;
77722;SDS011;67811;42.656;23.394;2023-11-21T09:18:55;18.20;;;10.65;;
77722;SDS011;67811;42.656;23.394;2023-11-21T09:23:00;20.60;;;11.07;;
77722;SDS011;67811;42.656;23.394;2023-11-21T09:27:06;17.50;;;10.10;;
77722;SDS011;67811;42.656;23.394;2023-11-21T09:31:11;22.70;;;11.13;;
77722;SDS011;67811;42.656;23.394;2023-11-21T09:35:17;19.33;;;11.43;;
77722;SDS011;67811;42.656;23.394;2023-11-21T09:39:22;15.85;;;9.10;;
77722;SDS011;67811;42.656;23.394;2023-11-21T09:43:28;23.13;;;11.03;;
77722;SDS011;67811;42.656;23.394;2023-11-21T09:47:35;17.85;;;9.65;;
77722;SDS011;67811;42.656;23.394;2023-11-21T09:51:43;15.73;;;9.05;;
77722;SDS011;67811;42.656;23.394;2023-11-21T09:55:49;17.45;;;9.23;;
77722;SDS011;67811;42.656;23.394;2023-11-21T09:59:57;16.85;;;8.68;;
77722;SDS011;67811;42.656;23.394;2023-11-21T10:04:03;15.85;;;8.30;;
77722;SDS011;67811;42.656;23.394;2023-11-21T10:08:10;14.23;;;8.30;;
77722;SDS011;67811;42.656;23.394;2023-11-21T10:12:16;14.15;;;8.27;;
77722;SDS011;67811;42.656;23.394;2023-11-21T10:16:22;17.05;;;7.68;;
77722;SDS011;67811;42.656;23.394;2023-11-21T10:20:31;14.63;;;8.93;;
77722;SDS011;67811;42.656;23.394;2023-11-21T10:24:37;12.13;;;7.28;;
77722;SDS011;67811;42.656;23.394;2023-11-21T10:28:55;15.73;;;7.80;;
77722;SDS011;67811;42.656;23.394;2023-11-21T10:33:02;16.73;;;6.90;;
77722;SDS011;67811;42.656;23.394;2023-11-21T10:37:11;14.88;;;7.68;;
77722;SDS011;67811;42.656;23.394;2023-11-21T10:41:17;10.68;;;6.40;;
77722;SDS011;67811;42.656;23.394;2023-11-21T10:45:23;12.55;;;6.10;;
77722;SDS011;67811;42.656;23.394;2023-11-21T10:49:28;13.67;;;6.87;;
77722;SDS011;67811;42.656;23.394;2023-11-21T10:53:33;12.45;;;7.18;;
77722;SDS011;67811;42.656;23.394;2023-11-21T10:57:39;13.93;;;7.30;;
77722;SDS011;67811;42.656;23.394;2023-11-21T11:01:44;11.00;;;6.87;;
77722;SDS011;67811;42.656;23.394;2023-11-21T11:05:50;13.48;;;7.22;;
77722;SDS011;67811;42.656;23.394;2023-11-21T11:09:58;14.25;;;8.02;;
77722;SDS011;67811;42.656;23.394;2023-11-21T11:14:04;13.98;;;7.45;;
77722;SDS011;67811;42.656;23.394;2023-11-21T11:18:09;18.13;;;7.73;;
77722;SDS011;67811;42.656;23.394;2023-11-21T11:35:25;18.55;;;7.78;;
77722;SDS011;67811;42.656;23.394;2023-11-21T11:39:39;14.35;;;6.68;;
77722;SDS011;67811;42.656;23.394;2023-11-21T11:43:46;16.33;;;7.60;;
77722;SDS011;67811;42.656;23.394;2023-11-21T11:47:56;15.63;;;8.23;;
77722;SDS011;67811;42.656;23.394;2023-11-21T11:52:45;18.60;;;8.60;;
77722;SDS011;67811;42.656;23.394;2023-11-21T11:56:37;20.38;;;8.52;;
77722;SDS011;67811;42.656;23.394;2023-11-21T12:00:42;22.27;;;8.97;;
77722;SDS011;67811;42.656;23.394;2023-11-21T12:04:47;21.40;;;9.93;;
77722;SDS011;67811;42.656;23.394;2023-11-21T12:08:52;20.83;;;10.83;;
77722;SDS011;67811;42.656;23.394;2023-11-21T12:12:59;25.43;;;13.00;;
77722;SDS011;67811;42.656;23.394;2023-11-21T12:17:06;26.70;;;16.17;;
77722;SDS011;67811;42.656;23.394;2023-11-21T12:21:11;29.38;;;16.95;;
77722;SDS011;67811;42.656;23.394;2023-11-21T12:25:18;30.70;;;16.33;;
77722;SDS011;67811;42.656;23.394;2023-11-21T12:29:28;25.88;;;13.95;;
77722;SDS011;67811;42.656;23.394;2023-11-21T12:33:33;21.63;;;14.13;;
77722;SDS011;67811;42.656;23.394;2023-11-21T12:37:39;23.23;;;13.97;;
77722;SDS011;67811;42.656;23.394;2023-11-21T12:41:45;22.52;;;13.27;;
77722;SDS011;67811;42.656;23.394;2023-11-21T12:45:51;22.70;;;13.27;;
77722;SDS011;67811;42.656;23.394;2023-11-21T12:50:18;25.52;;;13.73;;
77722;SDS011;67811;42.656;23.394;2023-11-21T12:54:24;24.75;;;14.02;;
77722;SDS011;67811;42.656;23.394;2023-11-21T12:58:29;32.30;;;17.83;;
77722;SDS011;67811;42.656;23.394;2023-11-21T13:02:36;25.90;;;15.57;;
77722;SDS011;67811;42.656;23.394;2023-11-21T13:06:41;26.17;;;14.40;;
77722;SDS011;67811;42.656;23.394;2023-11-21T13:10:48;22.40;;;12.27;;
77722;SDS011;67811;42.656;23.394;2023-11-21T13:14:55;28.55;;;14.20;;
77722;SDS011;67811;42.656;23.394;2023-11-21T13:19:01;23.63;;;14.07;;
77722;SDS011;67811;42.656;23.394;2023-11-21T13:23:10;23.50;;;12.53;;
77722;SDS011;67811;42.656;23.394;2023-11-21T13:27:15;26.45;;;14.27;;
77722;SDS011;67811;42.656;23.394;2023-11-21T13:31:21;23.23;;;13.27;;
77722;SDS011;67811;42.656;23.394;2023-11-21T13:35:26;25.40;;;14.00;;
77722;SDS011;67811;42.656;23.394;2023-11-21T13:39:31;23.97;;;13.33;;
77722;SDS011;67811;42.656;23.394;2023-11-21T13:43:37;28.30;;;14.83;;
77722;SDS011;67811;42.656;23.394;2023-11-21T13:47:42;24.63;;;14.67;;
77722;SDS011;67811;42.656;23.394;2023-11-21T13:51:47;26.73;;;14.67;;
77722;SDS011;67811;42.656;23.394;2023-11-21T13:55:53;25.87;;;13.63;;
77722;SDS011;67811;42.656;23.394;2023-11-21T13:59:59;26.05;;;14.93;;
77722;SDS011;67811;42.656;23.394;2023-11-21T14:04:04;24.77;;;15.97;;
77722;SDS011;67811;42.656;23.394;2023-11-21T14:08:10;33.80;;;15.50;;
77722;SDS011;67811;42.656;23.394;2023-11-21T14:12:15;25.37;;;12.83;;
77722;SDS011;67811;42.656;23.394;2023-11-21T14:16:20;20.57;;;13.07;;
77722;SDS011;67811;42.656;23.394;2023-11-21T14:20:26;24.07;;;13.97;;
77722;SDS011;67811;42.656;23.394;2023-11-21T14:24:31;24.10;;;14.10;;
77722;SDS011;67811;42.656;23.394;2023-11-21T14:28:36;27.17;;;14.13;;
77722;SDS011;67811;42.656;23.394;2023-11-21T14:32:42;25.27;;;14.03;;
77722;SDS011;67811;42.656;23.394;2023-11-21T14:36:47;26.57;;;14.47;;
77722;SDS011;67811;42.656;23.394;2023-11-21T14:40:52;29.83;;;16.07;;
77722;SDS011;67811;42.656;23.394;2023-11-21T14:44:57;26.23;;;15.50;;
77722;SDS011;67811;42.656;23.394;2023-11-21T14:49:03;28.53;;;15.33;;
77722;SDS011;67811;42.656;23.394;2023-11-21T14:53:09;31.90;;;15.50;;
77722;SDS011;67811;42.656;23.394;2023-11-21T14:57:15;30.17;;;16.40;;
77722;SDS011;67811;42.656;23.394;2023-11-21T15:01:21;27.40;;;17.10;;
77722;SDS011;67811;42.656;23.394;2023-11-21T15:05:28;34.33;;;18.58;;
77722;SDS011;67811;42.656;23.394;2023-11-21T15:09:34;29.40;;;16.77;;
77722;SDS011;67811;42.656;23.394;2023-11-21T15:13:39;29.63;;;16.33;;
77722;SDS011;67811;42.656;23.394;2023-11-21T15:17:45;27.45;;;14.75;;
77722;SDS011;67811;42.656;23.394;2023-11-21T15:21:50;30.53;;;16.70;;
77722;SDS011;67811;42.656;23.394;2023-11-21T15:25:55;31.87;;;18.17;;
77722;SDS011;67811;42.656;23.394;2023-11-21T15:30:01;27.67;;;16.70;;
77722;SDS011;67811;42.656;23.394;2023-11-21T15:34:06;32.10;;;17.00;;
77722;SDS011;67811;42.656;23.394;2023-11-21T15:38:11;31.43;;;17.60;;
77722;SDS011;67811;42.656;23.394;2023-11-21T15:42:17;34.77;;;18.57;;
77722;SDS011;67811;42.656;23.394;2023-11-21T15:46:22;33.00;;;17.73;;
77722;SDS011;67811;42.656;23.394;2023-11-21T15:50:27;30.83;;;18.83;;
77722;SDS011;67811;42.656;23.394;2023-11-21T15:54:32;31.47;;;18.37;;
77722;SDS011;67811;42.656;23.394;2023-11-21T15:58:38;34.17;;;17.13;;
77722;SDS011;67811;42.656;23.394;2023-11-21T16:02:44;30.10;;;17.30;;
77722;SDS011;67811;42.656;23.394;2023-11-21T16:06:49;32.50;;;17.43;;
77722;SDS011;67811;42.656;23.394;2023-11-21T16:10:54;37.03;;;19.20;;
77722;SDS011;67811;42.656;23.394;2023-11-21T16:15:00;34.40;;;18.63;;
77722;SDS011;67811;42.656;23.394;2023-11-21T16:19:05;38.37;;;20.70;;
77722;SDS011;67811;42.656;23.394;2023-11-21T16:23:10;29.63;;;17.57;;
77722;SDS011;67811;42.656;23.394;2023-11-21T16:27:16;36.13;;;16.93;;
77722;SDS011;67811;42.656;23.394;2023-11-21T16:31:21;30.73;;;16.50;;
77722;SDS011;67811;42.656;23.394;2023-11-21T16:35:27;29.00;;;15.35;;
77722;SDS011;67811;42.656;23.394;2023-11-21T16:39:32;23.33;;;13.17;;
77722;SDS011;67811;42.656;23.394;2023-11-21T16:43:38;20.43;;;11.73;;
77722;SDS011;67811;42.656;23.394;2023-11-21T16:47:43;31.43;;;18.43;;
77722;SDS011;67811;42.656;23.394;2023-11-21T16:51:49;28.00;;;15.03;;
77722;SDS011;67811;42.656;23.394;2023-11-21T16:55:55;25.77;;;13.63;;
77722;SDS011;67811;42.656;23.394;2023-11-21T17:00:00;32.33;;;15.97;;
77722;SDS011;67811;42.656;23.394;2023-11-21T17:04:05;26.53;;;15.70;;
77722;SDS011;67811;42.656;23.394;2023-11-21T17:08:11;27.67;;;14.60;;
77722;SDS011;67811;42.656;23.394;2023-11-21T17:12:16;29.80;;;16.97;;
77722;SDS011;67811;42.656;23.394;2023-11-21T17:16:22;29.80;;;16.52;;
77722;SDS011;67811;42.656;23.394;2023-11-21T17:20:28;34.20;;;17.43;;
77722;SDS011;67811;42.656;23.394;2023-11-21T17:24:33;27.40;;;13.80;;
77722;SDS011;67811;42.656;23.394;2023-11-21T17:28:38;29.23;;;16.27;;
77722;SDS011;67811;42.656;23.394;2023-11-21T17:32:43;29.20;;;14.20;;
77722;SDS011;67811;42.656;23.394;2023-11-21T17:36:49;24.50;;;14.10;;
77722;SDS011;67811;42.656;23.394;2023-11-21T17:40:54;24.37;;;14.13;;
77722;SDS011;67811;42.656;23.394;2023-11-21T17:44:59;24.60;;;12.80;;
77722;SDS011;67811;42.656;23.394;2023-11-21T17:49:05;21.13;;;12.07;;
77722;SDS011;67811;42.656;23.394;2023-11-21T17:53:10;27.90;;;14.67;;
77722;SDS011;67811;42.656;23.394;2023-11-21T17:57:15;25.23;;;13.63;;
77722;SDS011;67811;42.656;23.394;2023-11-21T18:01:21;23.67;;;10.55;;
77722;SDS011;67811;42.656;23.394;2023-11-21T18:05:26;26.33;;;13.73;;
77722;SDS011;67811;42.656;23.394;2023-11-21T18:09:32;24.77;;;14.27;;
77722;SDS011;67811;42.656;23.394;2023-11-21T18:13:37;26.70;;;12.83;;
77722;SDS011;67811;42.656;23.394;2023-11-21T18:17:42;24.07;;;13.77;;
77722;SDS011;67811;42.656;23.394;2023-11-21T18:21:48;25.83;;;14.63;;
77722;SDS011;67811;42.656;23.394;2023-11-21T18:25:53;25.90;;;14.17;;
77722;SDS011;67811;42.656;23.394;2023-11-21T18:29:58;27.17;;;14.87;;
77722;SDS011;67811;42.656;23.394;2023-11-21T18:34:04;25.43;;;13.17;;
77722;SDS011;67811;42.656;23.394;2023-11-21T18:38:09;25.93;;;16.17;;
77722;SDS011;67811;42.656;23.394;2023-11-21T18:42:14;29.60;;;15.43;;
77722;SDS011;67811;42.656;23.394;2023-11-21T18:46:20;28.63;;;16.30;;
77722;SDS011;67811;42.656;23.394;2023-11-21T18:50:25;27.00;;;14.33;;
77722;SDS011;67811;42.656;23.394;2023-11-21T18:54:30;32.00;;;17.60;;
77722;SDS011;67811;42.656;23.394;2023-11-21T18:58:35;42.00;;;20.97;;
77722;SDS011;67811;42.656;23.394;2023-11-21T19:02:41;36.47;;;18.70;;
77722;SDS011;67811;42.656;23.394;2023-11-21T19:06:46;42.80;;;18.27;;
77722;SDS011;67811;42.656;23.394;2023-11-21T19:10:52;33.63;;;17.70;;
77722;SDS011;67811;42.656;23.394;2023-11-21T19:14:57;33.43;;;19.23;;
77722;SDS011;67811;42.656;23.394;2023-11-21T19:19:03;35.35;;;19.55;;
77722;SDS011;67811;42.656;23.394;2023-11-21T19:23:08;35.77;;;18.13;;
77722;SDS011;67811;42.656;23.394;2023-11-21T19:27:13;33.07;;;18.27;;
77722;SDS011;67811;42.656;23.394;2023-11-21T19:31:19;32.27;;;18.47;;
77722;SDS011;67811;42.656;23.394;2023-11-21T19:35:25;40.92;;;19.83;;
77722;SDS011;67811;42.656;23.394;2023-11-21T19:39:30;33.63;;;18.07;;
77722;SDS011;67811;42.656;23.394;2023-11-21T19:43:36;35.00;;;19.00;;
77722;SDS011;67811;42.656;23.394;2023-11-21T19:47:41;30.93;;;17.07;;
77722;SDS011;67811;42.656;23.394;2023-11-21T19:51:46;31.40;;;18.27;;
77722;SDS011;67811;42.656;23.394;2023-11-21T19:55:52;31.27;;;17.77;;
77722;SDS011;67811;42.656;23.394;2023-11-21T19:59:57;31.70;;;18.83;;
77722;SDS011;67811;42.656;23.394;2023-11-21T20:04:02;29.53;;;16.47;;
77722;SDS011;67811;42.656;23.394;2023-11-21T20:08:08;30.30;;;17.13;;
77722;SDS011;67811;42.656;23.394;2023-11-21T20:12:13;29.63;;;16.83;;
77722;SDS011;67811;42.656;23.394;2023-11-21T20:16:18;31.53;;;16.63;;
77722;SDS011;67811;42.656;23.394;2023-11-21T20:20:23;29.03;;;17.17;;
77722;SDS011;67811;42.656;23.394;2023-11-21T20:24:29;30.87;;;17.93;;
77722;SDS011;67811;42.656;23.394;2023-11-21T20:28:34;37.87;;;19.03;;
77722;SDS011;67811;42.656;23.394;2023-11-21T20:32:39;25.73;;;16.03;;
77722;SDS011;67811;42.656;23.394;2023-11-21T20:36:48;26.73;;;14.60;;
77722;SDS011;67811;42.656;23.394;2023-11-21T20:40:53;29.50;;;16.75;;
77722;SDS011;67811;42.656;23.394;2023-11-21T20:44:58;29.37;;;16.37;;
77722;SDS011;67811;42.656;23.394;2023-11-21T20:49:04;31.23;;;17.17;;
77722;SDS011;67811;42.656;23.394;2023-11-21T20:53:09;35.23;;;19.90;;
77722;SDS011;67811;42.656;23.394;2023-11-21T20:57:14;38.43;;;18.77;;
77722;SDS011;67811;42.656;23.394;2023-11-21T21:01:20;33.47;;;19.07;;
77722;SDS011;67811;42.656;23.394;2023-11-21T21:05:25;34.13;;;18.60;;
77722;SDS011;67811;42.656;23.394;2023-11-21T21:09:30;38.57;;;22.10;;
77722;SDS011;67811;42.656;23.394;2023-11-21T21:13:36;32.40;;;18.83;;
77722;SDS011;67811;42.656;23.394;2023-11-21T21:17:41;33.72;;;17.88;;
77722;SDS011;67811;42.656;23.394;2023-11-21T21:21:46;53.50;;;26.90;;
77722;SDS011;67811;42.656;23.394;2023-11-21T21:25:52;39.30;;;21.30;;
77722;SDS011;67811;42.656;23.394;2023-11-21T21:29:57;35.37;;;19.17;;
77722;SDS011;67811;42.656;23.394;2023-11-21T21:34:02;40.23;;;19.07;;
77722;SDS011;67811;42.656;23.394;2023-11-21T21:38:08;39.73;;;18.63;;
77722;SDS011;67811;42.656;23.394;2023-11-21T21:42:13;36.43;;;19.50;;
77722;SDS011;67811;42.656;23.394;2023-11-21T21:46:19;36.30;;;20.17;;
77722;SDS011;67811;42.656;23.394;2023-11-21T21:50:24;36.00;;;20.47;;
77722;SDS011;67811;42.656;23.394;2023-11-21T21:54:29;35.43;;;18.33;;
77722;SDS011;67811;42.656;23.394;2023-11-21T21:58:35;35.30;;;19.03;;
77722;SDS011;67811;42.656;23.394;2023-11-21T22:02:40;36.80;;;20.67;;
77722;SDS011;67811;42.656;23.394;2023-11-21T22:06:46;36.20;;;18.55;;
77722;SDS011;67811;42.656;23.394;2023-11-21T22:10:51;34.63;;;19.47;;
77722;SDS011;67811;42.656;23.394;2023-11-21T22:14:57;24.83;;;15.37;;
77722;SDS011;67811;42.656;23.394;2023-11-21T22:19:02;30.13;;;18.30;;
77722;SDS011;67811;42.656;23.394;2023-11-21T22:23:07;25.67;;;14.47;;
77722;SDS011;67811;42.656;23.394;2023-11-21T22:27:12;24.67;;;14.47;;
77722;SDS011;67811;42.656;23.394;2023-11-21T22:31:18;27.40;;;13.97;;
77722;SDS011;67811;42.656;23.394;2023-11-21T22:35:23;23.73;;;15.17;;
77722;SDS011;67811;42.656;23.394;2023-11-21T22:39:29;24.10;;;12.70;;
77722;SDS011;67811;42.656;23.394;2023-11-21T22:43:34;26.27;;;12.93;;
77722;SDS011;67811;42.656;23.394;2023-11-21T22:47:39;24.53;;;13.37;;
77722;SDS011;67811;42.656;23.394;2023-11-21T22:51:45;27.43;;;13.83;;
77722;SDS011;67811;42.656;23.394;2023-11-21T22:55:50;22.40;;;11.77;;
77722;SDS011;67811;42.656;23.394;2023-11-21T22:59:55;22.80;;;13.67;;
77722;SDS011;67811;42.656;23.394;2023-11-21T23:04:01;25.17;;;14.40;;
77722;SDS011;67811;42.656;23.394;2023-11-21T23:08:06;23.37;;;13.90;;
77722;SDS011;67811;42.656;23.394;2023-11-21T23:12:11;27.97;;;14.97;;
77722;SDS011;67811;42.656;23.394;2023-11-21T23:16:17;26.97;;;13.67;;
77722;SDS011;67811;42.656;23.394;2023-11-21T23:20:22;25.73;;;14.60;;
77722;SDS011;67811;42.656;23.394;2023-11-21T23:24:27;27.60;;;13.70;;
77722;SDS011;67811;42.656;23.394;2023-11-21T23:28:32;20.93;;;13.23;;
77722;SDS011;67811;42.656;23.394;2023-11-21T23:32:38;21.83;;;12.50;;
77722;SDS011;67811;42.656;23.394;2023-11-21T23:36:43;21.53;;;12.87;;
77722;SDS011;67811;42.656;23.394;2023-11-21T23:40:48;23.60;;;11.60;;
77722;SDS011;67811;42.656;23.394;2023-11-21T23:44:54;25.47;;;12.40;;
77722;SDS011;67811;42.656;23.394;2023-11-21T23:48:59;23.93;;;12.20;;
77722;SDS011;67811;42.656;23.394;2023-11-21T23:53:04;20.50;;;12.07;;
77722;SDS011;67811;42.656;23.394;2023-11-21T23:57:10;21.47;;;11.93;;
